sensor_id;sensor_type;location;lat;lon;timestamp;P1;durP1;ratioP1;P2;durP2;ratioP2
68196;SDS011;55019;49.382;11.358;2023-11-21T00:00:00;0.52;;;0.32;;
68196;SDS011;55019;49.382;11.358;2023-11-21T00:02:27;0.70;;;0.30;;
68196;SDS011;55019;49.382;11.358;2023-11-21T00:04:53;1.35;;;0.22;;
68196;SDS011;55019;49.382;11.358;2023-11-21T00:07:19;0.25;;;0.20;;
68196;SDS011;55019;49.382;11.358;2023-11-21T00:09:46;1.23;;;0.50;;
68196;SDS011;55019;49.382;11.358;2023-11-21T00:12:12;2.05;;;0.55;;
68196;SDS011;55019;49.382;11.358;2023-11-21T00:14:39;0.30;;;0.20;;
68196;SDS011;55019;49.382;11.358;2023-11-21T00:17:05;1.27;;;0.30;;
68196;SDS011;55019;49.382;11.358;2023-11-21T00:19:31;1.70;;;0.30;;
68196;SDS011;55019;49.382;11.358;2023-11-21T00:21:58;0.45;;;0.35;;
68196;SDS011;55019;49.382;11.358;2023-11-21T00:24:24;0.88;;;0.30;;
68196;SDS011;55019;49.382;11.358;2023-11-21T00:26:51;1.67;;;0.30;;
68196;SDS011;55019;49.382;11.358;2023-11-21T00:29:17;0.20;;;0.10;;
68196;SDS011;55019;49.382;11.358;2023-11-21T00:31:44;1.80;;;0.30;;
68196;SDS011;55019;49.382;11.358;2023-11-21T00:36:37;1.92;;;0.40;;
68196;SDS011;55019;49.382;11.358;2023-11-21T00:39:03;2.65;;;1.00;;
68196;SDS011;55019;49.382;11.358;2023-11-21T00:41:33;1.77;;;0.70;;
68196;SDS011;55019;49.382;11.358;2023-11-21T00:43:59;2.35;;;0.70;;
68196;SDS011;55019;49.382;11.358;2023-11-21T00:46:26;2.30;;;0.40;;
68196;SDS011;55019;49.382;11.358;2023-11-21T00:48:55;0.77;;;0.22;;
68196;SDS011;55019;49.382;11.358;2023-11-21T00:51:21;1.83;;;0.20;;
68196;SDS011;55019;49.382;11.358;2023-11-21T00:53:47;2.72;;;0.77;;
68196;SDS011;55019;49.382;11.358;2023-11-21T00:56:13;1.65;;;0.80;;
68196;SDS011;55019;49.382;11.358;2023-11-21T00:58:41;0.32;;;0.20;;
68196;SDS011;55019;49.382;11.358;2023-11-21T01:01:14;0.80;;;0.45;;
68196;SDS011;55019;49.382;11.358;2023-11-21T01:03:41;1.23;;;0.30;;
68196;SDS011;55019;49.382;11.358;2023-11-21T01:06:13;0.80;;;0.20;;
68196;SDS011;55019;49.382;11.358;2023-11-21T01:08:38;0.22;;;0.17;;
68196;SDS011;55019;49.382;11.358;2023-11-21T01:11:04;0.68;;;0.20;;
68196;SDS011;55019;49.382;11.358;2023-11-21T01:13:33;0.80;;;0.38;;
68196;SDS011;55019;49.382;11.358;2023-11-21T01:15:58;0.65;;;0.40;;
68196;SDS011;55019;49.382;11.358;2023-11-21T01:18:24;1.73;;;0.60;;
68196;SDS011;55019;49.382;11.358;2023-11-21T01:20:51;1.00;;;0.55;;
68196;SDS011;55019;49.382;11.358;2023-11-21T01:23:18;0.60;;;0.20;;
68196;SDS011;55019;49.382;11.358;2023-11-21T01:25:44;0.88;;;0.20;;
68196;SDS011;55019;49.382;11.358;2023-11-21T01:28:09;0.50;;;0.20;;
68196;SDS011;55019;49.382;11.358;2023-11-21T01:30:35;0.80;;;0.40;;
68196;SDS011;55019;49.382;11.358;2023-11-21T01:33:01;0.85;;;0.38;;
68196;SDS011;55019;49.382;11.358;2023-11-21T01:35:26;0.52;;;0.15;;
68196;SDS011;55019;49.382;11.358;2023-11-21T01:37:52;1.63;;;0.22;;
68196;SDS011;55019;49.382;11.358;2023-11-21T01:40:18;1.17;;;0.20;;
68196;SDS011;55019;49.382;11.358;2023-11-21T01:42:44;1.23;;;0.47;;
68196;SDS011;55019;49.382;11.358;2023-11-21T01:45:12;1.83;;;0.28;;
68196;SDS011;55019;49.382;11.358;2023-11-21T01:47:38;0.98;;;0.20;;
68196;SDS011;55019;49.382;11.358;2023-11-21T01:50:09;1.35;;;0.30;;
68196;SDS011;55019;49.382;11.358;2023-11-21T01:52:39;0.28;;;0.20;;
68196;SDS011;55019;49.382;11.358;2023-11-21T01:55:06;0.40;;;0.13;;
68196;SDS011;55019;49.382;11.358;2023-11-21T01:57:34;1.67;;;0.20;;
68196;SDS011;55019;49.382;11.358;2023-11-21T02:00:03;1.33;;;0.10;;
68196;SDS011;55019;49.382;11.358;2023-11-21T02:02:44;0.40;;;0.10;;
68196;SDS011;55019;49.382;11.358;2023-11-21T02:05:11;0.30;;;0.10;;
68196;SDS011;55019;49.382;11.358;2023-11-21T02:07:44;1.85;;;0.30;;
68196;SDS011;55019;49.382;11.358;2023-11-21T02:10:11;1.67;;;0.30;;
68196;SDS011;55019;49.382;11.358;2023-11-21T02:12:43;1.45;;;0.22;;
68196;SDS011;55019;49.382;11.358;2023-11-21T02:15:12;1.27;;;0.20;;
68196;SDS011;55019;49.382;11.358;2023-11-21T02:17:52;1.55;;;0.15;;
68196;SDS011;55019;49.382;11.358;2023-11-21T02:20:19;1.83;;;0.20;;
68196;SDS011;55019;49.382;11.358;2023-11-21T02:22:51;0.25;;;0.05;;
68196;SDS011;55019;49.382;11.358;2023-11-21T02:25:24;2.17;;;0.20;;
68196;SDS011;55019;49.382;11.358;2023-11-21T02:27:57;0.43;;;0.00;;
68196;SDS011;55019;49.382;11.358;2023-11-21T02:30:25;0.30;;;0.20;;
68196;SDS011;55019;49.382;11.358;2023-11-21T02:32:53;0.20;;;0.10;;
68196;SDS011;55019;49.382;11.358;2023-11-21T02:35:19;1.02;;;0.10;;
68196;SDS011;55019;49.382;11.358;2023-11-21T02:37:48;1.35;;;0.40;;
68196;SDS011;55019;49.382;11.358;2023-11-21T02:40:15;1.00;;;0.20;;
68196;SDS011;55019;49.382;11.358;2023-11-21T02:42:44;0.95;;;0.10;;
68196;SDS011;55019;49.382;11.358;2023-11-21T02:45:12;1.58;;;0.28;;
68196;SDS011;55019;49.382;11.358;2023-11-21T02:47:39;0.85;;;0.20;;
68196;SDS011;55019;49.382;11.358;2023-11-21T02:50:11;0.50;;;0.17;;
68196;SDS011;55019;49.382;11.358;2023-11-21T02:52:39;1.35;;;0.30;;
68196;SDS011;55019;49.382;11.358;2023-11-21T02:55:07;0.47;;;0.20;;
68196;SDS011;55019;49.382;11.358;2023-11-21T02:57:33;0.40;;;0.17;;
68196;SDS011;55019;49.382;11.358;2023-11-21T02:59:59;1.85;;;0.40;;
68196;SDS011;55019;49.382;11.358;2023-11-21T03:02:25;1.73;;;0.32;;
68196;SDS011;55019;49.382;11.358;2023-11-21T03:04:51;1.73;;;0.20;;
68196;SDS011;55019;49.382;11.358;2023-11-21T03:07:18;1.17;;;0.30;;
68196;SDS011;55019;49.382;11.358;2023-11-21T03:09:44;0.30;;;0.20;;
68196;SDS011;55019;49.382;11.358;2023-11-21T03:12:11;0.57;;;0.20;;
68196;SDS011;55019;49.382;11.358;2023-11-21T03:14:41;1.45;;;0.35;;
68196;SDS011;55019;49.382;11.358;2023-11-21T03:17:07;0.20;;;0.10;;
68196;SDS011;55019;49.382;11.358;2023-11-21T03:19:32;2.17;;;0.32;;
68196;SDS011;55019;49.382;11.358;2023-11-21T03:21:58;1.17;;;0.47;;
68196;SDS011;55019;49.382;11.358;2023-11-21T03:24:24;2.53;;;0.40;;
68196;SDS011;55019;49.382;11.358;2023-11-21T03:26:50;2.97;;;0.50;;
68196;SDS011;55019;49.382;11.358;2023-11-21T03:29:17;1.95;;;0.40;;
68196;SDS011;55019;49.382;11.358;2023-11-21T03:31:42;1.92;;;0.40;;
68196;SDS011;55019;49.382;11.358;2023-11-21T03:34:15;1.50;;;0.25;;
68196;SDS011;55019;49.382;11.358;2023-11-21T03:36:50;0.95;;;0.32;;
68196;SDS011;55019;49.382;11.358;2023-11-21T03:39:20;1.27;;;0.60;;
68196;SDS011;55019;49.382;11.358;2023-11-21T03:44:15;0.40;;;0.30;;
68196;SDS011;55019;49.382;11.358;2023-11-21T03:46:41;0.50;;;0.35;;
68196;SDS011;55019;49.382;11.358;2023-11-21T03:49:06;0.77;;;0.40;;
68196;SDS011;55019;49.382;11.358;2023-11-21T03:51:33;1.10;;;0.40;;
68196;SDS011;55019;49.382;11.358;2023-11-21T03:54:01;1.27;;;0.50;;
68196;SDS011;55019;49.382;11.358;2023-11-21T03:56:27;0.43;;;0.22;;
68196;SDS011;55019;49.382;11.358;2023-11-21T03:58:55;1.98;;;0.38;;
68196;SDS011;55019;49.382;11.358;2023-11-21T04:01:23;1.95;;;0.47;;
68196;SDS011;55019;49.382;11.358;2023-11-21T04:03:50;0.98;;;0.52;;
68196;SDS011;55019;49.382;11.358;2023-11-21T04:06:17;1.27;;;0.47;;
68196;SDS011;55019;49.382;11.358;2023-11-21T04:08:43;1.17;;;0.60;;
68196;SDS011;55019;49.382;11.358;2023-11-21T04:11:10;1.02;;;0.50;;
68196;SDS011;55019;49.382;11.358;2023-11-21T04:13:38;1.33;;;0.32;;
68196;SDS011;55019;49.382;11.358;2023-11-21T04:16:07;0.90;;;0.35;;
68196;SDS011;55019;49.382;11.358;2023-11-21T04:18:35;0.68;;;0.30;;
68196;SDS011;55019;49.382;11.358;2023-11-21T04:21:01;0.40;;;0.30;;
68196;SDS011;55019;49.382;11.358;2023-11-21T04:23:28;1.33;;;0.40;;
68196;SDS011;55019;49.382;11.358;2023-11-21T04:25:54;0.95;;;0.30;;
68196;SDS011;55019;49.382;11.358;2023-11-21T04:30:48;1.05;;;0.35;;
68196;SDS011;55019;49.382;11.358;2023-11-21T04:33:14;1.85;;;0.40;;
68196;SDS011;55019;49.382;11.358;2023-11-21T04:35:39;0.63;;;0.32;;
68196;SDS011;55019;49.382;11.358;2023-11-21T04:38:05;1.45;;;0.38;;
68196;SDS011;55019;49.382;11.358;2023-11-21T04:40:30;2.75;;;0.40;;
68196;SDS011;55019;49.382;11.358;2023-11-21T04:42:56;1.10;;;0.45;;
68196;SDS011;55019;49.382;11.358;2023-11-21T04:45:22;1.33;;;0.30;;
68196;SDS011;55019;49.382;11.358;2023-11-21T04:47:48;0.80;;;0.50;;
68196;SDS011;55019;49.382;11.358;2023-11-21T04:50:14;1.30;;;0.47;;
68196;SDS011;55019;49.382;11.358;2023-11-21T04:52:43;1.02;;;0.30;;
68196;SDS011;55019;49.382;11.358;2023-11-21T04:55:08;2.60;;;0.35;;
68196;SDS011;55019;49.382;11.358;2023-11-21T04:57:35;1.15;;;0.20;;
68196;SDS011;55019;49.382;11.358;2023-11-21T05:00:02;2.08;;;0.30;;
68196;SDS011;55019;49.382;11.358;2023-11-21T05:02:34;0.65;;;0.32;;
68196;SDS011;55019;49.382;11.358;2023-11-21T05:05:00;0.47;;;0.25;;
68196;SDS011;55019;49.382;11.358;2023-11-21T05:07:27;0.68;;;0.30;;
68196;SDS011;55019;49.382;11.358;2023-11-21T05:09:55;0.80;;;0.40;;
68196;SDS011;55019;49.382;11.358;2023-11-21T05:12:21;3.50;;;0.38;;
68196;SDS011;55019;49.382;11.358;2023-11-21T05:14:49;0.95;;;0.30;;
68196;SDS011;55019;49.382;11.358;2023-11-21T05:17:15;0.60;;;0.43;;
68196;SDS011;55019;49.382;11.358;2023-11-21T05:19:40;1.90;;;0.30;;
68196;SDS011;55019;49.382;11.358;2023-11-21T05:22:06;0.28;;;0.20;;
68196;SDS011;55019;49.382;11.358;2023-11-21T05:24:33;0.73;;;0.40;;
68196;SDS011;55019;49.382;11.358;2023-11-21T05:26:59;0.40;;;0.40;;
68196;SDS011;55019;49.382;11.358;2023-11-21T05:29:24;1.63;;;0.38;;
68196;SDS011;55019;49.382;11.358;2023-11-21T05:31:51;2.15;;;0.45;;
68196;SDS011;55019;49.382;11.358;2023-11-21T05:34:16;1.50;;;0.40;;
68196;SDS011;55019;49.382;11.358;2023-11-21T05:36:43;1.55;;;0.60;;
68196;SDS011;55019;49.382;11.358;2023-11-21T05:39:11;0.38;;;0.32;;
68196;SDS011;55019;49.382;11.358;2023-11-21T05:41:37;1.85;;;0.60;;
68196;SDS011;55019;49.382;11.358;2023-11-21T05:44:02;1.38;;;0.63;;
68196;SDS011;55019;49.382;11.358;2023-11-21T05:46:28;1.10;;;0.70;;
68196;SDS011;55019;49.382;11.358;2023-11-21T05:48:54;0.50;;;0.40;;
68196;SDS011;55019;49.382;11.358;2023-11-21T05:51:20;0.93;;;0.80;;
68196;SDS011;55019;49.382;11.358;2023-11-21T05:53:46;0.77;;;0.70;;
68196;SDS011;55019;49.382;11.358;2023-11-21T05:56:12;0.93;;;0.68;;
68196;SDS011;55019;49.382;11.358;2023-11-21T05:58:39;3.90;;;1.02;;
68196;SDS011;55019;49.382;11.358;2023-11-21T06:01:05;0.65;;;0.55;;
68196;SDS011;55019;49.382;11.358;2023-11-21T06:03:33;1.50;;;0.90;;
68196;SDS011;55019;49.382;11.358;2023-11-21T06:05:58;0.93;;;0.55;;
68196;SDS011;55019;49.382;11.358;2023-11-21T06:08:24;0.88;;;0.65;;
68196;SDS011;55019;49.382;11.358;2023-11-21T06:10:50;0.90;;;0.60;;
68196;SDS011;55019;49.382;11.358;2023-11-21T06:13:15;1.00;;;0.65;;
68196;SDS011;55019;49.382;11.358;2023-11-21T06:15:41;0.60;;;0.60;;
68196;SDS011;55019;49.382;11.358;2023-11-21T06:18:07;2.05;;;1.00;;
68196;SDS011;55019;49.382;11.358;2023-11-21T06:23:02;2.83;;;0.50;;
68196;SDS011;55019;49.382;11.358;2023-11-21T06:25:29;1.35;;;0.50;;
68196;SDS011;55019;49.382;11.358;2023-11-21T06:27:54;1.50;;;0.82;;
68196;SDS011;55019;49.382;11.358;2023-11-21T06:30:21;1.23;;;0.65;;
68196;SDS011;55019;49.382;11.358;2023-11-21T06:32:48;1.42;;;0.60;;
68196;SDS011;55019;49.382;11.358;2023-11-21T06:35:15;1.50;;;0.73;;
68196;SDS011;55019;49.382;11.358;2023-11-21T06:37:41;2.22;;;1.33;;
68196;SDS011;55019;49.382;11.358;2023-11-21T06:40:07;2.30;;;1.48;;
68196;SDS011;55019;49.382;11.358;2023-11-21T06:42:33;2.95;;;1.20;;
68196;SDS011;55019;49.382;11.358;2023-11-21T06:44:59;2.17;;;1.13;;
68196;SDS011;55019;49.382;11.358;2023-11-21T06:47:27;0.90;;;0.55;;
68196;SDS011;55019;49.382;11.358;2023-11-21T06:49:54;1.55;;;1.02;;
68196;SDS011;55019;49.382;11.358;2023-11-21T06:52:20;1.48;;;1.00;;
68196;SDS011;55019;49.382;11.358;2023-11-21T06:54:47;2.55;;;1.17;;
68196;SDS011;55019;49.382;11.358;2023-11-21T06:57:14;3.95;;;1.17;;
68196;SDS011;55019;49.382;11.358;2023-11-21T06:59:41;1.20;;;0.80;;
68196;SDS011;55019;49.382;11.358;2023-11-21T07:02:07;1.13;;;0.80;;
68196;SDS011;55019;49.382;11.358;2023-11-21T07:04:33;1.35;;;1.02;;
68196;SDS011;55019;49.382;11.358;2023-11-21T07:06:59;1.42;;;1.02;;
68196;SDS011;55019;49.382;11.358;2023-11-21T07:09:25;1.15;;;0.95;;
68196;SDS011;55019;49.382;11.358;2023-11-21T07:11:54;2.38;;;0.90;;
68196;SDS011;55019;49.382;11.358;2023-11-21T07:14:20;1.52;;;0.88;;
68196;SDS011;55019;49.382;11.358;2023-11-21T07:16:46;2.00;;;1.00;;
68196;SDS011;55019;49.382;11.358;2023-11-21T07:19:12;1.95;;;1.00;;
68196;SDS011;55019;49.382;11.358;2023-11-21T07:21:39;1.88;;;1.40;;
68196;SDS011;55019;49.382;11.358;2023-11-21T07:24:05;2.63;;;1.75;;
68196;SDS011;55019;49.382;11.358;2023-11-21T07:26:32;2.65;;;2.00;;
68196;SDS011;55019;49.382;11.358;2023-11-21T07:28:59;4.45;;;3.25;;
68196;SDS011;55019;49.382;11.358;2023-11-21T07:31:25;6.13;;;3.72;;
68196;SDS011;55019;49.382;11.358;2023-11-21T07:33:51;3.58;;;2.55;;
68196;SDS011;55019;49.382;11.358;2023-11-21T07:36:18;1.55;;;1.10;;
68196;SDS011;55019;49.382;11.358;2023-11-21T07:38:44;3.03;;;1.60;;
68196;SDS011;55019;49.382;11.358;2023-11-21T07:41:10;1.95;;;1.10;;
68196;SDS011;55019;49.382;11.358;2023-11-21T07:43:37;2.70;;;1.17;;
68196;SDS011;55019;49.382;11.358;2023-11-21T07:46:03;1.63;;;1.15;;
68196;SDS011;55019;49.382;11.358;2023-11-21T07:48:33;2.67;;;1.42;;
68196;SDS011;55019;49.382;11.358;2023-11-21T07:51:00;1.75;;;1.65;;
68196;SDS011;55019;49.382;11.358;2023-11-21T07:53:28;2.88;;;1.50;;
68196;SDS011;55019;49.382;11.358;2023-11-21T07:55:55;1.73;;;1.20;;
68196;SDS011;55019;49.382;11.358;2023-11-21T07:58:21;2.40;;;1.40;;
68196;SDS011;55019;49.382;11.358;2023-11-21T08:00:49;2.60;;;1.38;;
68196;SDS011;55019;49.382;11.358;2023-11-21T08:03:15;3.35;;;2.47;;
68196;SDS011;55019;49.382;11.358;2023-11-21T08:05:42;1.50;;;1.15;;
68196;SDS011;55019;49.382;11.358;2023-11-21T08:08:07;3.17;;;1.55;;
68196;SDS011;55019;49.382;11.358;2023-11-21T08:10:34;2.15;;;1.73;;
68196;SDS011;55019;49.382;11.358;2023-11-21T08:13:01;2.85;;;1.10;;
68196;SDS011;55019;49.382;11.358;2023-11-21T08:15:27;1.55;;;1.23;;
68196;SDS011;55019;49.382;11.358;2023-11-21T08:17:53;2.50;;;1.40;;
68196;SDS011;55019;49.382;11.358;2023-11-21T08:20:19;3.00;;;2.70;;
68196;SDS011;55019;49.382;11.358;2023-11-21T08:22:44;1.92;;;1.42;;
68196;SDS011;55019;49.382;11.358;2023-11-21T08:25:12;2.92;;;1.23;;
68196;SDS011;55019;49.382;11.358;2023-11-21T08:27:38;2.70;;;1.30;;
68196;SDS011;55019;49.382;11.358;2023-11-21T08:30:04;2.25;;;1.13;;
68196;SDS011;55019;49.382;11.358;2023-11-21T08:32:30;2.47;;;1.50;;
68196;SDS011;55019;49.382;11.358;2023-11-21T08:34:58;3.10;;;0.90;;
68196;SDS011;55019;49.382;11.358;2023-11-21T08:37:25;2.15;;;1.10;;
68196;SDS011;55019;49.382;11.358;2023-11-21T08:39:52;1.65;;;1.10;;
68196;SDS011;55019;49.382;11.358;2023-11-21T08:42:19;1.73;;;1.02;;
68196;SDS011;55019;49.382;11.358;2023-11-21T08:44:45;2.70;;;1.40;;
68196;SDS011;55019;49.382;11.358;2023-11-21T08:47:11;2.63;;;1.55;;
68196;SDS011;55019;49.382;11.358;2023-11-21T08:49:37;1.38;;;1.17;;
68196;SDS011;55019;49.382;11.358;2023-11-21T08:52:03;1.58;;;0.80;;
68196;SDS011;55019;49.382;11.358;2023-11-21T08:54:30;1.00;;;0.75;;
68196;SDS011;55019;49.382;11.358;2023-11-21T08:56:56;2.47;;;1.27;;
68196;SDS011;55019;49.382;11.358;2023-11-21T08:59:24;4.20;;;1.95;;
68196;SDS011;55019;49.382;11.358;2023-11-21T09:01:50;1.60;;;1.23;;
68196;SDS011;55019;49.382;11.358;2023-11-21T09:04:16;1.83;;;1.33;;
68196;SDS011;55019;49.382;11.358;2023-11-21T09:06:42;2.35;;;1.10;;
68196;SDS011;55019;49.382;11.358;2023-11-21T09:09:07;1.98;;;1.40;;
68196;SDS011;55019;49.382;11.358;2023-11-21T09:11:35;4.53;;;1.15;;
68196;SDS011;55019;49.382;11.358;2023-11-21T09:14:02;1.77;;;1.13;;
68196;SDS011;55019;49.382;11.358;2023-11-21T09:16:31;1.63;;;1.00;;
68196;SDS011;55019;49.382;11.358;2023-11-21T09:18:57;1.15;;;0.70;;
68196;SDS011;55019;49.382;11.358;2023-11-21T09:21:23;1.67;;;1.10;;
68196;SDS011;55019;49.382;11.358;2023-11-21T09:23:50;1.95;;;0.98;;
68196;SDS011;55019;49.382;11.358;2023-11-21T09:26:19;2.78;;;0.90;;
68196;SDS011;55019;49.382;11.358;2023-11-21T09:28:45;1.10;;;0.70;;
68196;SDS011;55019;49.382;11.358;2023-11-21T09:31:13;1.85;;;1.05;;
68196;SDS011;55019;49.382;11.358;2023-11-21T09:33:42;2.88;;;1.10;;
68196;SDS011;55019;49.382;11.358;2023-11-21T09:36:11;2.45;;;1.00;;
68196;SDS011;55019;49.382;11.358;2023-11-21T09:38:39;1.05;;;0.85;;
68196;SDS011;55019;49.382;11.358;2023-11-21T09:41:05;1.77;;;0.90;;
68196;SDS011;55019;49.382;11.358;2023-11-21T09:43:37;1.52;;;0.95;;
68196;SDS011;55019;49.382;11.358;2023-11-21T09:46:04;2.85;;;0.98;;
68196;SDS011;55019;49.382;11.358;2023-11-21T09:48:36;1.52;;;1.23;;
68196;SDS011;55019;49.382;11.358;2023-11-21T09:51:04;1.40;;;1.00;;
68196;SDS011;55019;49.382;11.358;2023-11-21T09:53:31;0.85;;;0.63;;
68196;SDS011;55019;49.382;11.358;2023-11-21T09:55:58;1.02;;;0.90;;
68196;SDS011;55019;49.382;11.358;2023-11-21T09:58:27;1.77;;;1.23;;
68196;SDS011;55019;49.382;11.358;2023-11-21T10:00:55;1.73;;;0.90;;
68196;SDS011;55019;49.382;11.358;2023-11-21T10:03:25;1.42;;;1.17;;
68196;SDS011;55019;49.382;11.358;2023-11-21T10:05:50;2.40;;;1.00;;
68196;SDS011;55019;49.382;11.358;2023-11-21T10:08:18;1.67;;;1.00;;
68196;SDS011;55019;49.382;11.358;2023-11-21T10:10:46;1.48;;;1.00;;
68196;SDS011;55019;49.382;11.358;2023-11-21T10:13:16;2.53;;;1.15;;
68196;SDS011;55019;49.382;11.358;2023-11-21T10:15:45;1.55;;;1.17;;
68196;SDS011;55019;49.382;11.358;2023-11-21T10:18:18;1.83;;;1.23;;
68196;SDS011;55019;49.382;11.358;2023-11-21T10:20:44;1.35;;;1.20;;
68196;SDS011;55019;49.382;11.358;2023-11-21T10:23:18;1.95;;;1.48;;
68196;SDS011;55019;49.382;11.358;2023-11-21T10:25:44;3.17;;;1.55;;
68196;SDS011;55019;49.382;11.358;2023-11-21T10:28:10;2.17;;;1.60;;
68196;SDS011;55019;49.382;11.358;2023-11-21T10:30:37;2.25;;;1.40;;
68196;SDS011;55019;49.382;11.358;2023-11-21T10:33:04;3.35;;;1.67;;
68196;SDS011;55019;49.382;11.358;2023-11-21T10:35:47;3.03;;;1.75;;
68196;SDS011;55019;49.382;11.358;2023-11-21T10:38:20;2.47;;;1.45;;
68196;SDS011;55019;49.382;11.358;2023-11-21T10:40:48;2.33;;;1.67;;
68196;SDS011;55019;49.382;11.358;2023-11-21T10:43:14;3.67;;;1.70;;
68196;SDS011;55019;49.382;11.358;2023-11-21T10:45:41;2.67;;;1.85;;
68196;SDS011;55019;49.382;11.358;2023-11-21T10:48:14;2.95;;;1.65;;
68196;SDS011;55019;49.382;11.358;2023-11-21T10:50:41;1.83;;;1.33;;
68196;SDS011;55019;49.382;11.358;2023-11-21T10:53:07;2.90;;;1.48;;
68196;SDS011;55019;49.382;11.358;2023-11-21T10:55:33;2.72;;;1.40;;
68196;SDS011;55019;49.382;11.358;2023-11-21T10:58:00;3.05;;;1.65;;
68196;SDS011;55019;49.382;11.358;2023-11-21T11:00:28;1.35;;;1.25;;
68196;SDS011;55019;49.382;11.358;2023-11-21T11:02:54;1.63;;;1.10;;
68196;SDS011;55019;49.382;11.358;2023-11-21T11:05:25;1.63;;;1.35;;
68196;SDS011;55019;49.382;11.358;2023-11-21T11:08:03;2.00;;;1.30;;
68196;SDS011;55019;49.382;11.358;2023-11-21T11:10:31;1.38;;;0.73;;
68196;SDS011;55019;49.382;11.358;2023-11-21T11:12:57;1.63;;;0.93;;
68196;SDS011;55019;49.382;11.358;2023-11-21T11:15:24;0.98;;;0.80;;
68196;SDS011;55019;49.382;11.358;2023-11-21T11:17:52;1.20;;;1.10;;
68196;SDS011;55019;49.382;11.358;2023-11-21T11:20:31;1.10;;;1.00;;
68196;SDS011;55019;49.382;11.358;2023-11-21T11:24:05;1.30;;;1.10;;
68196;SDS011;55019;49.382;11.358;2023-11-21T11:26:39;0.90;;;0.80;;
68196;SDS011;55019;49.382;11.358;2023-11-21T11:34:46;3.22;;;0.95;;
68196;SDS011;55019;49.382;11.358;2023-11-21T11:37:15;1.58;;;1.10;;
68196;SDS011;55019;49.382;11.358;2023-11-21T11:39:42;2.22;;;1.00;;
68196;SDS011;55019;49.382;11.358;2023-11-21T11:42:15;1.25;;;1.02;;
68196;SDS011;55019;49.382;11.358;2023-11-21T11:47:28;1.15;;;0.90;;
68196;SDS011;55019;49.382;11.358;2023-11-21T11:50:08;1.35;;;0.95;;
68196;SDS011;55019;49.382;11.358;2023-11-21T11:52:48;1.17;;;0.90;;
68196;SDS011;55019;49.382;11.358;2023-11-21T11:55:17;0.95;;;0.80;;
68196;SDS011;55019;49.382;11.358;2023-11-21T11:57:48;1.83;;;0.85;;
68196;SDS011;55019;49.382;11.358;2023-11-21T12:00:21;1.58;;;1.00;;
68196;SDS011;55019;49.382;11.358;2023-11-21T12:02:51;2.25;;;1.10;;
68196;SDS011;55019;49.382;11.358;2023-11-21T12:05:19;1.90;;;1.50;;
68196;SDS011;55019;49.382;11.358;2023-11-21T12:07:50;2.88;;;2.00;;
68196;SDS011;55019;49.382;11.358;2023-11-21T12:10:20;1.70;;;1.38;;
68196;SDS011;55019;49.382;11.358;2023-11-21T12:12:56;2.20;;;1.52;;
68196;SDS011;55019;49.382;11.358;2023-11-21T12:17:50;9.27;;;2.75;;
68196;SDS011;55019;49.382;11.358;2023-11-21T12:20:20;3.88;;;2.22;;
68196;SDS011;55019;49.382;11.358;2023-11-21T12:22:48;5.05;;;1.73;;
68196;SDS011;55019;49.382;11.358;2023-11-21T12:25:22;2.13;;;1.77;;
68196;SDS011;55019;49.382;11.358;2023-11-21T12:27:50;2.40;;;1.40;;
68196;SDS011;55019;49.382;11.358;2023-11-21T12:30:21;1.98;;;1.27;;
68196;SDS011;55019;49.382;11.358;2023-11-21T12:32:56;1.10;;;0.93;;
68196;SDS011;55019;49.382;11.358;2023-11-21T12:35:27;0.90;;;0.80;;
68196;SDS011;55019;49.382;11.358;2023-11-21T12:37:55;1.08;;;0.70;;
68196;SDS011;55019;49.382;11.358;2023-11-21T12:40:22;1.35;;;0.80;;
68196;SDS011;55019;49.382;11.358;2023-11-21T12:42:49;0.65;;;0.50;;
68196;SDS011;55019;49.382;11.358;2023-11-21T12:45:22;1.15;;;0.50;;
68196;SDS011;55019;49.382;11.358;2023-11-21T12:50:33;0.70;;;0.60;;
68196;SDS011;55019;49.382;11.358;2023-11-21T12:53:08;0.98;;;0.55;;
68196;SDS011;55019;49.382;11.358;2023-11-21T12:55:37;1.13;;;0.40;;
68196;SDS011;55019;49.382;11.358;2023-11-21T12:58:04;1.02;;;0.57;;
68196;SDS011;55019;49.382;11.358;2023-11-21T13:00:38;1.27;;;0.65;;
68196;SDS011;55019;49.382;11.358;2023-11-21T13:03:05;1.00;;;0.90;;
68196;SDS011;55019;49.382;11.358;2023-11-21T13:05:35;0.82;;;0.68;;
68196;SDS011;55019;49.382;11.358;2023-11-21T13:08:06;0.80;;;0.40;;
68196;SDS011;55019;49.382;11.358;2023-11-21T13:10:34;1.38;;;0.47;;
68196;SDS011;55019;49.382;11.358;2023-11-21T13:13:02;0.50;;;0.43;;
68196;SDS011;55019;49.382;11.358;2023-11-21T13:15:30;0.85;;;0.50;;
68196;SDS011;55019;49.382;11.358;2023-11-21T13:17:58;0.70;;;0.38;;
68196;SDS011;55019;49.382;11.358;2023-11-21T13:20:24;0.82;;;0.57;;
68196;SDS011;55019;49.382;11.358;2023-11-21T13:22:51;0.57;;;0.40;;
68196;SDS011;55019;49.382;11.358;2023-11-21T13:25:29;2.85;;;1.70;;
68196;SDS011;55019;49.382;11.358;2023-11-21T13:27:58;1.98;;;1.15;;
68196;SDS011;55019;49.382;11.358;2023-11-21T13:30:24;2.03;;;1.20;;
68196;SDS011;55019;49.382;11.358;2023-11-21T13:32:59;2.35;;;1.27;;
68196;SDS011;55019;49.382;11.358;2023-11-21T13:35:30;1.25;;;0.80;;
68196;SDS011;55019;49.382;11.358;2023-11-21T13:38:02;3.55;;;0.60;;
68196;SDS011;55019;49.382;11.358;2023-11-21T13:40:31;2.38;;;0.93;;
68196;SDS011;55019;49.382;11.358;2023-11-21T13:42:56;1.73;;;0.95;;
68196;SDS011;55019;49.382;11.358;2023-11-21T13:45:29;1.25;;;0.63;;
68196;SDS011;55019;49.382;11.358;2023-11-21T13:47:56;2.30;;;0.90;;
68196;SDS011;55019;49.382;11.358;2023-11-21T13:50:27;1.52;;;0.90;;
68196;SDS011;55019;49.382;11.358;2023-11-21T13:53:01;1.65;;;1.08;;
68196;SDS011;55019;49.382;11.358;2023-11-21T13:58:14;1.27;;;0.57;;
68196;SDS011;55019;49.382;11.358;2023-11-21T14:00:46;1.25;;;0.70;;
68196;SDS011;55019;49.382;11.358;2023-11-21T14:03:20;0.77;;;0.57;;
68196;SDS011;55019;49.382;11.358;2023-11-21T14:05:47;1.70;;;0.80;;
68196;SDS011;55019;49.382;11.358;2023-11-21T14:08:19;0.88;;;0.50;;
68196;SDS011;55019;49.382;11.358;2023-11-21T14:10:49;1.42;;;0.60;;
68196;SDS011;55019;49.382;11.358;2023-11-21T14:13:26;1.05;;;0.57;;
68196;SDS011;55019;49.382;11.358;2023-11-21T14:15:52;2.22;;;0.55;;
68196;SDS011;55019;49.382;11.358;2023-11-21T14:18:25;1.98;;;0.82;;
68196;SDS011;55019;49.382;11.358;2023-11-21T14:20:56;1.15;;;0.65;;
68196;SDS011;55019;49.382;11.358;2023-11-21T14:23:21;0.85;;;0.70;;
68196;SDS011;55019;49.382;11.358;2023-11-21T14:25:48;1.05;;;0.77;;
68196;SDS011;55019;49.382;11.358;2023-11-21T14:30:42;1.27;;;0.70;;
68196;SDS011;55019;49.382;11.358;2023-11-21T14:33:07;1.48;;;0.90;;
68196;SDS011;55019;49.382;11.358;2023-11-21T14:35:35;1.23;;;0.95;;
68196;SDS011;55019;49.382;11.358;2023-11-21T14:38:02;1.60;;;0.80;;
68196;SDS011;55019;49.382;11.358;2023-11-21T14:40:33;0.75;;;0.52;;
68196;SDS011;55019;49.382;11.358;2023-11-21T14:43:00;0.90;;;0.65;;
68196;SDS011;55019;49.382;11.358;2023-11-21T14:45:30;1.00;;;0.80;;
68196;SDS011;55019;49.382;11.358;2023-11-21T14:48:00;1.58;;;0.55;;
68196;SDS011;55019;49.382;11.358;2023-11-21T14:50:41;0.90;;;0.60;;
68196;SDS011;55019;49.382;11.358;2023-11-21T14:53:11;1.27;;;0.73;;
68196;SDS011;55019;49.382;11.358;2023-11-21T14:55:40;1.25;;;0.80;;
68196;SDS011;55019;49.382;11.358;2023-11-21T14:58:16;1.95;;;0.88;;
68196;SDS011;55019;49.382;11.358;2023-11-21T15:00:58;2.00;;;0.88;;
68196;SDS011;55019;49.382;11.358;2023-11-21T15:06:01;2.00;;;1.00;;
68196;SDS011;55019;49.382;11.358;2023-11-21T15:08:48;1.58;;;1.10;;